Espanola, NM (87533)

8:28 PM MDT on August 29, 2014 (GMT -0600)
Fairview- Prof D | Change Station
CLOSE
Current Station
Personal Weather Station
Location: Espanola, NM
Elevation: 5670 ft
Nearby Weather Stations

Elev 5670 ft 36.00 °N, 106.05 °W | Updated 4 seconds ago

Clear
Clear
68.0 °F
Feels Like 68.0 °F
N
0.0
Wind Variable Wind from WNW
Gusts 0.0 mph

Today
High -- | Low -- °F
--% Chance of Precip.
Yesterday
High -- | Low -- °F
Precip. -- in
6:33 AM 7:35 PM
Waxing Crescent, 18% visible
Pressure 30.24 in
Visibility 10.0 miles
Clouds Clear
Dew Point 54 °F
Humidity 60%
Rainfall 0.00 in
Snow Depth 1 in
UV 0 out of 12
Pollen 8.30 out of 12
Air Quality Not available.
Flu Activity Not available.
METAR KLAM 300215Z AUTO 24004KT 10SM CLR 21/00 A3024 RMK AO2 T02110003

More Conditions Fewer Conditions

Pressure 30.24 in
Visibility 10.0 miles
Clouds Clear
Dew Point 54 °F
Humidity 60%
Rainfall 0.00 in
Snow Depth 1 in
UV 0 out of 12
Pollen 8.30 out of 12
Air Quality Not available.
Flu Activity Not available.
METAR KLAM 300215Z AUTO 24004KT 10SM CLR 21/00 A3024 RMK AO2 T02110003

More Conditions Fewer Conditions

10-Day Weather Forecast

Almanac

Astronomy

Aug. 29, 2014 Rise Set
Actual Time 6:33 AM MDT 7:35 PM MDT
Civil Twilight 6:07 AM MDT 8:02 PM MDT
Nautical Twilight 5:36 AM MDT 8:33 PM MDT
Astronomical Twilight 5:03 AM MDT 9:05 PM MDT
Moon 10:17 AM MDT (8/29) 9:44 PM MDT (8/29)
Length of Visible Light 13h 54m
Length of Day
13h 02m
Tomorrow will be 2m 10s shorter.
Waxing Crescent, 18% of the Moon is Illuminated
Today
Waxing Crescent
Sep 2
First Quarter
Sep 8
Full
Sep 15
Last Quarter
Sep 24
New

Today's Extremes

State Highs State Lows

Community

WunderPhotos

Upload Photos

1,748,412 photos uploaded!

Nearby

Snow Depth

Station Depth Elevation
Quemazon 1 in 9500 ft
Santa Fe 0 in 11445 ft
Gallegos Peak 0 in 9800 ft
Wesner Springs 1 in 11120 ft
Hopewell 0 in 10000 ft

Earthquake Activity

City Distance Mag. Time & Date
No recent earthquake activity has been reported nearby.
Minimum magnitude displayed is 2.5.

Coastal Water Temperatures

Place Temperature
No Stations Reporting

Nearby Weather Stations